sensor_id;sensor_type;location;lat;lon;timestamp;P1;durP1;ratioP1;P2;durP2;ratioP2
9388;SDS011;4734;52.778;6.798;2022-10-16T00:00:19;3.65;;;2.30;;
9388;SDS011;4734;52.778;6.798;2022-10-16T00:03:05;3.47;;;2.03;;
9388;SDS011;4734;52.778;6.798;2022-10-16T00:05:51;6.65;;;1.95;;
9388;SDS011;4734;52.778;6.798;2022-10-16T00:08:38;5.88;;;2.50;;
9388;SDS011;4734;52.778;6.798;2022-10-16T00:11:25;7.13;;;2.00;;
9388;SDS011;4734;52.778;6.798;2022-10-16T00:14:12;3.72;;;2.20;;
9388;SDS011;4734;52.778;6.798;2022-10-16T00:16:59;8.98;;;2.40;;
9388;SDS011;4734;52.778;6.798;2022-10-16T00:19:44;7.47;;;2.22;;
9388;SDS011;4734;52.778;6.798;2022-10-16T00:22:30;4.32;;;2.22;;
9388;SDS011;4734;52.778;6.798;2022-10-16T00:25:17;5.20;;;2.30;;
9388;SDS011;4734;52.778;6.798;2022-10-16T00:28:03;5.45;;;2.20;;
9388;SDS011;4734;52.778;6.798;2022-10-16T00:30:49;7.32;;;2.33;;
9388;SDS011;4734;52.778;6.798;2022-10-16T00:33:34;4.07;;;2.20;;
9388;SDS011;4734;52.778;6.798;2022-10-16T00:36:21;3.70;;;2.00;;
9388;SDS011;4734;52.778;6.798;2022-10-16T00:39:08;4.78;;;2.20;;
9388;SDS011;4734;52.778;6.798;2022-10-16T00:41:55;3.42;;;2.60;;
9388;SDS011;4734;52.778;6.798;2022-10-16T00:44:41;4.22;;;2.30;;
9388;SDS011;4734;52.778;6.798;2022-10-16T00:47:30;4.22;;;2.45;;
9388;SDS011;4734;52.778;6.798;2022-10-16T00:50:18;4.28;;;2.55;;
9388;SDS011;4734;52.778;6.798;2022-10-16T00:53:11;9.02;;;2.70;;
9388;SDS011;4734;52.778;6.798;2022-10-16T00:55:57;4.97;;;2.83;;
9388;SDS011;4734;52.778;6.798;2022-10-16T00:58:44;4.28;;;2.60;;
9388;SDS011;4734;52.778;6.798;2022-10-16T01:01:29;4.80;;;2.40;;
9388;SDS011;4734;52.778;6.798;2022-10-16T01:04:15;3.88;;;2.20;;
9388;SDS011;4734;52.778;6.798;2022-10-16T01:07:03;9.50;;;2.60;;
9388;SDS011;4734;52.778;6.798;2022-10-16T01:09:57;4.45;;;2.60;;
9388;SDS011;4734;52.778;6.798;2022-10-16T01:12:54;5.43;;;2.72;;
9388;SDS011;4734;52.778;6.798;2022-10-16T01:15:45;5.75;;;2.33;;
9388;SDS011;4734;52.778;6.798;2022-10-16T01:18:37;5.88;;;2.70;;
9388;SDS011;4734;52.778;6.798;2022-10-16T01:21:28;5.63;;;2.85;;
9388;SDS011;4734;52.778;6.798;2022-10-16T01:24:20;4.00;;;2.83;;
9388;SDS011;4734;52.778;6.798;2022-10-16T01:27:17;4.00;;;2.67;;
9388;SDS011;4734;52.778;6.798;2022-10-16T01:30:10;6.03;;;2.85;;
9388;SDS011;4734;52.778;6.798;2022-10-16T01:33:01;4.15;;;2.50;;
9388;SDS011;4734;52.778;6.798;2022-10-16T01:35:52;5.45;;;2.92;;
9388;SDS011;4734;52.778;6.798;2022-10-16T01:38:39;7.15;;;2.70;;
9388;SDS011;4734;52.778;6.798;2022-10-16T01:41:26;3.55;;;2.40;;
9388;SDS011;4734;52.778;6.798;2022-10-16T01:44:18;3.25;;;2.45;;
9388;SDS011;4734;52.778;6.798;2022-10-16T01:47:07;3.60;;;2.35;;
9388;SDS011;4734;52.778;6.798;2022-10-16T01:49:54;5.53;;;2.33;;
9388;SDS011;4734;52.778;6.798;2022-10-16T01:52:43;5.22;;;2.50;;
9388;SDS011;4734;52.778;6.798;2022-10-16T01:55:32;5.57;;;2.20;;
9388;SDS011;4734;52.778;6.798;2022-10-16T01:58:20;2.90;;;2.60;;
9388;SDS011;4734;52.778;6.798;2022-10-16T02:01:09;4.43;;;2.60;;
9388;SDS011;4734;52.778;6.798;2022-10-16T02:03:58;4.00;;;2.65;;
9388;SDS011;4734;52.778;6.798;2022-10-16T02:06:47;4.72;;;2.30;;
9388;SDS011;4734;52.778;6.798;2022-10-16T02:09:33;8.85;;;2.50;;
9388;SDS011;4734;52.778;6.798;2022-10-16T02:12:23;6.35;;;2.10;;
9388;SDS011;4734;52.778;6.798;2022-10-16T02:15:11;5.57;;;2.30;;
9388;SDS011;4734;52.778;6.798;2022-10-16T02:17:58;3.80;;;2.20;;
9388;SDS011;4734;52.778;6.798;2022-10-16T02:20:45;4.28;;;2.40;;
9388;SDS011;4734;52.778;6.798;2022-10-16T02:23:37;3.47;;;2.53;;
9388;SDS011;4734;52.778;6.798;2022-10-16T02:26:31;3.95;;;2.20;;
9388;SDS011;4734;52.778;6.798;2022-10-16T02:29:22;7.45;;;2.22;;
9388;SDS011;4734;52.778;6.798;2022-10-16T02:32:10;3.38;;;2.20;;
9388;SDS011;4734;52.778;6.798;2022-10-16T02:35:01;3.88;;;2.33;;
9388;SDS011;4734;52.778;6.798;2022-10-16T02:37:48;3.13;;;2.25;;
9388;SDS011;4734;52.778;6.798;2022-10-16T02:40:35;3.25;;;2.53;;
9388;SDS011;4734;52.778;6.798;2022-10-16T02:43:21;4.47;;;2.45;;
9388;SDS011;4734;52.778;6.798;2022-10-16T02:46:08;2.75;;;2.00;;
9388;SDS011;4734;52.778;6.798;2022-10-16T02:48:53;5.47;;;2.30;;
9388;SDS011;4734;52.778;6.798;2022-10-16T02:51:40;2.65;;;2.40;;
9388;SDS011;4734;52.778;6.798;2022-10-16T02:54:26;3.78;;;2.25;;
9388;SDS011;4734;52.778;6.798;2022-10-16T02:57:11;4.15;;;2.50;;
9388;SDS011;4734;52.778;6.798;2022-10-16T02:59:57;3.30;;;2.17;;
9388;SDS011;4734;52.778;6.798;2022-10-16T03:02:42;3.17;;;2.20;;
9388;SDS011;4734;52.778;6.798;2022-10-16T03:05:28;3.72;;;2.10;;
9388;SDS011;4734;52.778;6.798;2022-10-16T03:08:15;3.85;;;2.30;;
9388;SDS011;4734;52.778;6.798;2022-10-16T03:11:01;2.97;;;2.30;;
9388;SDS011;4734;52.778;6.798;2022-10-16T03:13:46;5.90;;;2.13;;
9388;SDS011;4734;52.778;6.798;2022-10-16T03:16:32;3.42;;;1.95;;
9388;SDS011;4734;52.778;6.798;2022-10-16T03:19:18;3.95;;;2.50;;
9388;SDS011;4734;52.778;6.798;2022-10-16T03:22:04;3.58;;;2.30;;
9388;SDS011;4734;52.778;6.798;2022-10-16T03:24:51;7.60;;;2.25;;
9388;SDS011;4734;52.778;6.798;2022-10-16T03:27:37;5.65;;;2.50;;
9388;SDS011;4734;52.778;6.798;2022-10-16T03:30:22;2.70;;;2.30;;
9388;SDS011;4734;52.778;6.798;2022-10-16T03:33:08;3.60;;;2.50;;
9388;SDS011;4734;52.778;6.798;2022-10-16T03:35:54;4.15;;;2.50;;
9388;SDS011;4734;52.778;6.798;2022-10-16T03:38:39;4.53;;;2.65;;
9388;SDS011;4734;52.778;6.798;2022-10-16T03:41:26;4.43;;;2.60;;
9388;SDS011;4734;52.778;6.798;2022-10-16T03:44:12;4.57;;;2.38;;
9388;SDS011;4734;52.778;6.798;2022-10-16T03:46:57;6.30;;;2.67;;
9388;SDS011;4734;52.778;6.798;2022-10-16T03:49:43;2.63;;;2.17;;
9388;SDS011;4734;52.778;6.798;2022-10-16T03:52:29;3.45;;;2.10;;
9388;SDS011;4734;52.778;6.798;2022-10-16T03:55:15;2.40;;;2.20;;
9388;SDS011;4734;52.778;6.798;2022-10-16T03:58:02;5.55;;;2.63;;
9388;SDS011;4734;52.778;6.798;2022-10-16T04:00:47;4.15;;;2.20;;
9388;SDS011;4734;52.778;6.798;2022-10-16T04:03:33;4.93;;;2.80;;
9388;SDS011;4734;52.778;6.798;2022-10-16T04:06:19;3.72;;;2.63;;
9388;SDS011;4734;52.778;6.798;2022-10-16T04:09:04;4.90;;;2.85;;
9388;SDS011;4734;52.778;6.798;2022-10-16T04:11:50;5.28;;;2.92;;
9388;SDS011;4734;52.778;6.798;2022-10-16T04:14:37;4.90;;;2.85;;
9388;SDS011;4734;52.778;6.798;2022-10-16T04:17:22;3.55;;;2.97;;
9388;SDS011;4734;52.778;6.798;2022-10-16T04:20:08;3.67;;;2.88;;
9388;SDS011;4734;52.778;6.798;2022-10-16T04:22:54;3.20;;;2.80;;
9388;SDS011;4734;52.778;6.798;2022-10-16T04:25:39;4.25;;;3.00;;
9388;SDS011;4734;52.778;6.798;2022-10-16T04:28:25;4.55;;;3.00;;
9388;SDS011;4734;52.778;6.798;2022-10-16T04:31:12;3.38;;;2.65;;
9388;SDS011;4734;52.778;6.798;2022-10-16T04:33:57;3.80;;;2.80;;
9388;SDS011;4734;52.778;6.798;2022-10-16T04:36:43;4.03;;;2.97;;
9388;SDS011;4734;52.778;6.798;2022-10-16T04:39:28;3.53;;;3.22;;
9388;SDS011;4734;52.778;6.798;2022-10-16T04:42:14;3.03;;;2.83;;
9388;SDS011;4734;52.778;6.798;2022-10-16T04:45:00;3.70;;;3.03;;
9388;SDS011;4734;52.778;6.798;2022-10-16T04:47:47;3.03;;;2.83;;
9388;SDS011;4734;52.778;6.798;2022-10-16T04:50:32;6.15;;;2.90;;
9388;SDS011;4734;52.778;6.798;2022-10-16T04:53:18;3.47;;;2.97;;
9388;SDS011;4734;52.778;6.798;2022-10-16T04:56:03;5.70;;;2.90;;
9388;SDS011;4734;52.778;6.798;2022-10-16T04:58:49;5.63;;;3.30;;
9388;SDS011;4734;52.778;6.798;2022-10-16T05:01:35;5.18;;;3.03;;
9388;SDS011;4734;52.778;6.798;2022-10-16T05:04:22;3.22;;;2.92;;
9388;SDS011;4734;52.778;6.798;2022-10-16T05:07:08;6.35;;;3.28;;
9388;SDS011;4734;52.778;6.798;2022-10-16T05:09:54;5.72;;;3.15;;
9388;SDS011;4734;52.778;6.798;2022-10-16T05:12:39;6.75;;;3.13;;
9388;SDS011;4734;52.778;6.798;2022-10-16T05:15:25;3.63;;;3.03;;
9388;SDS011;4734;52.778;6.798;2022-10-16T05:18:10;5.50;;;3.22;;
9388;SDS011;4734;52.778;6.798;2022-10-16T05:20:57;4.40;;;2.95;;
9388;SDS011;4734;52.778;6.798;2022-10-16T05:23:43;3.45;;;3.10;;
9388;SDS011;4734;52.778;6.798;2022-10-16T05:26:28;5.80;;;2.85;;
9388;SDS011;4734;52.778;6.798;2022-10-16T05:29:14;2.70;;;2.50;;
9388;SDS011;4734;52.778;6.798;2022-10-16T05:32:00;4.20;;;3.28;;
9388;SDS011;4734;52.778;6.798;2022-10-16T05:34:46;3.00;;;2.70;;
9388;SDS011;4734;52.778;6.798;2022-10-16T05:37:32;4.32;;;2.88;;
9388;SDS011;4734;52.778;6.798;2022-10-16T05:40:18;3.50;;;2.65;;
9388;SDS011;4734;52.778;6.798;2022-10-16T05:43:03;4.28;;;2.67;;
9388;SDS011;4734;52.778;6.798;2022-10-16T05:45:55;4.47;;;2.95;;
9388;SDS011;4734;52.778;6.798;2022-10-16T05:48:41;3.50;;;2.97;;
9388;SDS011;4734;52.778;6.798;2022-10-16T05:51:27;3.67;;;2.92;;
9388;SDS011;4734;52.778;6.798;2022-10-16T05:54:14;4.85;;;2.90;;
9388;SDS011;4734;52.778;6.798;2022-10-16T05:57:00;3.22;;;2.90;;
9388;SDS011;4734;52.778;6.798;2022-10-16T05:59:46;3.35;;;2.70;;
9388;SDS011;4734;52.778;6.798;2022-10-16T06:02:31;2.90;;;2.50;;
9388;SDS011;4734;52.778;6.798;2022-10-16T06:05:17;2.85;;;2.55;;
9388;SDS011;4734;52.778;6.798;2022-10-16T06:08:03;3.25;;;2.50;;
9388;SDS011;4734;52.778;6.798;2022-10-16T06:10:57;4.30;;;2.95;;
9388;SDS011;4734;52.778;6.798;2022-10-16T06:13:48;3.13;;;2.40;;
9388;SDS011;4734;52.778;6.798;2022-10-16T06:16:35;4.38;;;2.50;;
9388;SDS011;4734;52.778;6.798;2022-10-16T06:19:21;5.10;;;2.72;;
9388;SDS011;4734;52.778;6.798;2022-10-16T06:22:07;5.07;;;2.72;;
9388;SDS011;4734;52.778;6.798;2022-10-16T06:24:52;6.82;;;2.50;;
9388;SDS011;4734;52.778;6.798;2022-10-16T06:27:40;6.65;;;2.47;;
9388;SDS011;4734;52.778;6.798;2022-10-16T06:30:25;4.22;;;2.85;;
9388;SDS011;4734;52.778;6.798;2022-10-16T06:33:11;4.45;;;2.38;;
9388;SDS011;4734;52.778;6.798;2022-10-16T06:36:00;3.30;;;2.20;;
9388;SDS011;4734;52.778;6.798;2022-10-16T06:38:46;3.70;;;2.35;;
9388;SDS011;4734;52.778;6.798;2022-10-16T06:41:31;2.80;;;2.30;;
9388;SDS011;4734;52.778;6.798;2022-10-16T06:44:18;2.85;;;2.03;;
9388;SDS011;4734;52.778;6.798;2022-10-16T06:47:03;2.25;;;2.05;;
9388;SDS011;4734;52.778;6.798;2022-10-16T06:49:49;3.45;;;2.42;;
9388;SDS011;4734;52.778;6.798;2022-10-16T06:52:34;2.72;;;2.53;;
9388;SDS011;4734;52.778;6.798;2022-10-16T06:55:20;2.40;;;2.20;;
9388;SDS011;4734;52.778;6.798;2022-10-16T06:58:06;3.78;;;2.38;;
9388;SDS011;4734;52.778;6.798;2022-10-16T07:00:56;2.72;;;2.38;;
9388;SDS011;4734;52.778;6.798;2022-10-16T07:03:42;3.05;;;2.40;;
9388;SDS011;4734;52.778;6.798;2022-10-16T07:06:30;2.97;;;2.33;;
9388;SDS011;4734;52.778;6.798;2022-10-16T07:09:17;2.60;;;2.40;;
9388;SDS011;4734;52.778;6.798;2022-10-16T07:12:02;6.10;;;2.38;;
9388;SDS011;4734;52.778;6.798;2022-10-16T07:14:48;5.22;;;2.40;;
9388;SDS011;4734;52.778;6.798;2022-10-16T07:17:37;4.07;;;2.35;;
9388;SDS011;4734;52.778;6.798;2022-10-16T07:20:22;3.42;;;2.38;;
9388;SDS011;4734;52.778;6.798;2022-10-16T07:23:08;3.42;;;2.40;;
9388;SDS011;4734;52.778;6.798;2022-10-16T07:25:53;3.75;;;2.30;;
9388;SDS011;4734;52.778;6.798;2022-10-16T07:28:39;6.18;;;2.60;;
9388;SDS011;4734;52.778;6.798;2022-10-16T07:31:27;2.95;;;2.53;;
9388;SDS011;4734;52.778;6.798;2022-10-16T07:34:14;3.83;;;2.35;;
9388;SDS011;4734;52.778;6.798;2022-10-16T07:37:02;4.18;;;2.70;;
9388;SDS011;4734;52.778;6.798;2022-10-16T07:39:47;2.85;;;2.47;;
9388;SDS011;4734;52.778;6.798;2022-10-16T07:42:33;3.85;;;2.70;;
9388;SDS011;4734;52.778;6.798;2022-10-16T07:45:19;5.45;;;2.50;;
9388;SDS011;4734;52.778;6.798;2022-10-16T07:48:04;3.83;;;2.60;;
9388;SDS011;4734;52.778;6.798;2022-10-16T07:50:51;3.05;;;2.30;;
9388;SDS011;4734;52.778;6.798;2022-10-16T07:53:36;3.10;;;2.20;;
9388;SDS011;4734;52.778;6.798;2022-10-16T07:56:22;3.75;;;2.10;;
9388;SDS011;4734;52.778;6.798;2022-10-16T07:59:09;3.22;;;2.30;;
9388;SDS011;4734;52.778;6.798;2022-10-16T08:01:55;3.75;;;2.05;;
9388;SDS011;4734;52.778;6.798;2022-10-16T08:04:40;2.40;;;2.08;;
9388;SDS011;4734;52.778;6.798;2022-10-16T08:07:27;4.25;;;2.05;;
9388;SDS011;4734;52.778;6.798;2022-10-16T08:10:14;4.28;;;2.38;;
9388;SDS011;4734;52.778;6.798;2022-10-16T08:13:01;3.63;;;2.05;;
9388;SDS011;4734;52.778;6.798;2022-10-16T08:15:47;5.10;;;1.65;;
9388;SDS011;4734;52.778;6.798;2022-10-16T08:18:33;2.90;;;2.08;;
9388;SDS011;4734;52.778;6.798;2022-10-16T08:21:20;2.97;;;1.83;;
9388;SDS011;4734;52.778;6.798;2022-10-16T08:24:08;2.80;;;1.77;;
9388;SDS011;4734;52.778;6.798;2022-10-16T08:26:54;2.97;;;1.67;;
9388;SDS011;4734;52.778;6.798;2022-10-16T08:29:39;5.90;;;1.70;;
9388;SDS011;4734;52.778;6.798;2022-10-16T08:32:25;3.95;;;1.85;;
9388;SDS011;4734;52.778;6.798;2022-10-16T08:35:10;3.30;;;2.20;;
9388;SDS011;4734;52.778;6.798;2022-10-16T08:37:57;3.70;;;1.90;;
9388;SDS011;4734;52.778;6.798;2022-10-16T08:40:44;5.72;;;1.70;;
9388;SDS011;4734;52.778;6.798;2022-10-16T08:43:34;3.58;;;1.90;;
9388;SDS011;4734;52.778;6.798;2022-10-16T08:46:31;3.65;;;1.83;;
9388;SDS011;4734;52.778;6.798;2022-10-16T08:49:26;3.25;;;1.80;;
9388;SDS011;4734;52.778;6.798;2022-10-16T08:52:13;3.67;;;1.90;;
9388;SDS011;4734;52.778;6.798;2022-10-16T08:54:58;4.47;;;1.90;;
9388;SDS011;4734;52.778;6.798;2022-10-16T08:57:45;3.80;;;1.85;;
9388;SDS011;4734;52.778;6.798;2022-10-16T09:00:31;2.78;;;1.80;;
9388;SDS011;4734;52.778;6.798;2022-10-16T09:03:21;5.20;;;2.20;;
9388;SDS011;4734;52.778;6.798;2022-10-16T09:06:19;5.60;;;1.75;;
9388;SDS011;4734;52.778;6.798;2022-10-16T09:09:21;3.67;;;1.70;;
9388;SDS011;4734;52.778;6.798;2022-10-16T09:12:26;3.65;;;1.70;;
9388;SDS011;4734;52.778;6.798;2022-10-16T09:15:23;5.65;;;1.83;;
9388;SDS011;4734;52.778;6.798;2022-10-16T09:18:17;4.03;;;1.60;;
9388;SDS011;4734;52.778;6.798;2022-10-16T09:21:14;2.75;;;1.80;;
9388;SDS011;4734;52.778;6.798;2022-10-16T09:24:07;6.00;;;2.33;;
9388;SDS011;4734;52.778;6.798;2022-10-16T09:26:56;5.38;;;2.03;;
9388;SDS011;4734;52.778;6.798;2022-10-16T09:29:42;4.10;;;1.83;;
9388;SDS011;4734;52.778;6.798;2022-10-16T09:32:29;3.65;;;1.70;;
9388;SDS011;4734;52.778;6.798;2022-10-16T09:35:16;3.60;;;1.95;;
9388;SDS011;4734;52.778;6.798;2022-10-16T09:38:04;4.63;;;1.80;;
9388;SDS011;4734;52.778;6.798;2022-10-16T09:40:50;4.20;;;2.00;;
9388;SDS011;4734;52.778;6.798;2022-10-16T09:43:38;5.63;;;1.77;;
9388;SDS011;4734;52.778;6.798;2022-10-16T09:46:27;5.32;;;2.15;;
9388;SDS011;4734;52.778;6.798;2022-10-16T09:49:22;11.27;;;2.28;;
9388;SDS011;4734;52.778;6.798;2022-10-16T09:52:13;3.58;;;1.60;;
9388;SDS011;4734;52.778;6.798;2022-10-16T09:55:02;7.95;;;2.30;;
9388;SDS011;4734;52.778;6.798;2022-10-16T09:57:58;5.70;;;1.83;;
9388;SDS011;4734;52.778;6.798;2022-10-16T10:00:48;3.60;;;1.75;;
9388;SDS011;4734;52.778;6.798;2022-10-16T10:03:37;5.72;;;1.95;;
9388;SDS011;4734;52.778;6.798;2022-10-16T10:06:26;10.00;;;2.47;;
9388;SDS011;4734;52.778;6.798;2022-10-16T10:09:16;7.57;;;2.20;;
9388;SDS011;4734;52.778;6.798;2022-10-16T10:12:04;13.10;;;2.50;;
9388;SDS011;4734;52.778;6.798;2022-10-16T10:14:51;9.25;;;1.90;;
9388;SDS011;4734;52.778;6.798;2022-10-16T10:17:45;6.38;;;2.22;;
9388;SDS011;4734;52.778;6.798;2022-10-16T10:20:32;3.92;;;1.92;;
9388;SDS011;4734;52.778;6.798;2022-10-16T10:23:23;5.90;;;2.10;;
9388;SDS011;4734;52.778;6.798;2022-10-16T10:26:10;7.63;;;1.98;;
9388;SDS011;4734;52.778;6.798;2022-10-16T10:29:03;5.93;;;2.10;;
9388;SDS011;4734;52.778;6.798;2022-10-16T10:31:58;7.00;;;2.13;;
9388;SDS011;4734;52.778;6.798;2022-10-16T10:34:54;10.20;;;2.75;;
9388;SDS011;4734;52.778;6.798;2022-10-16T10:37:51;8.20;;;2.35;;
9388;SDS011;4734;52.778;6.798;2022-10-16T10:40:51;6.88;;;1.75;;
9388;SDS011;4734;52.778;6.798;2022-10-16T10:43:48;4.78;;;1.90;;
9388;SDS011;4734;52.778;6.798;2022-10-16T10:46:42;10.00;;;2.17;;
9388;SDS011;4734;52.778;6.798;2022-10-16T10:49:39;6.53;;;1.90;;
9388;SDS011;4734;52.778;6.798;2022-10-16T10:52:36;8.60;;;2.05;;
9388;SDS011;4734;52.778;6.798;2022-10-16T10:55:37;6.22;;;2.40;;
9388;SDS011;4734;52.778;6.798;2022-10-16T10:58:29;8.18;;;1.90;;
9388;SDS011;4734;52.778;6.798;2022-10-16T11:01:30;5.97;;;2.30;;
9388;SDS011;4734;52.778;6.798;2022-10-16T11:04:32;6.88;;;2.38;;
9388;SDS011;4734;52.778;6.798;2022-10-16T11:07:30;8.27;;;2.10;;
9388;SDS011;4734;52.778;6.798;2022-10-16T11:10:21;6.70;;;2.13;;
9388;SDS011;4734;52.778;6.798;2022-10-16T11:13:11;8.57;;;2.17;;
9388;SDS011;4734;52.778;6.798;2022-10-16T11:16:10;7.90;;;2.30;;
9388;SDS011;4734;52.778;6.798;2022-10-16T11:19:02;5.97;;;2.00;;
9388;SDS011;4734;52.778;6.798;2022-10-16T11:21:59;7.85;;;2.33;;
9388;SDS011;4734;52.778;6.798;2022-10-16T11:24:50;9.38;;;2.20;;
9388;SDS011;4734;52.778;6.798;2022-10-16T11:27:40;7.07;;;1.85;;
9388;SDS011;4734;52.778;6.798;2022-10-16T11:30:29;7.15;;;2.20;;
9388;SDS011;4734;52.778;6.798;2022-10-16T11:33:22;8.77;;;2.35;;
9388;SDS011;4734;52.778;6.798;2022-10-16T11:36:15;6.43;;;1.88;;
9388;SDS011;4734;52.778;6.798;2022-10-16T11:39:08;4.90;;;2.25;;
9388;SDS011;4734;52.778;6.798;2022-10-16T11:42:05;5.95;;;2.00;;
9388;SDS011;4734;52.778;6.798;2022-10-16T11:44:57;7.90;;;2.45;;
9388;SDS011;4734;52.778;6.798;2022-10-16T11:47:50;9.38;;;1.95;;
9388;SDS011;4734;52.778;6.798;2022-10-16T11:50:45;9.32;;;2.15;;
9388;SDS011;4734;52.778;6.798;2022-10-16T11:53:39;6.82;;;2.45;;
9388;SDS011;4734;52.778;6.798;2022-10-16T11:56:31;4.93;;;2.10;;
9388;SDS011;4734;52.778;6.798;2022-10-16T11:59:23;7.78;;;1.80;;
9388;SDS011;4734;52.778;6.798;2022-10-16T12:02:26;6.28;;;2.15;;
9388;SDS011;4734;52.778;6.798;2022-10-16T12:05:21;5.60;;;2.13;;
9388;SDS011;4734;52.778;6.798;2022-10-16T12:08:15;9.13;;;1.95;;
9388;SDS011;4734;52.778;6.798;2022-10-16T12:11:09;9.10;;;2.00;;
9388;SDS011;4734;52.778;6.798;2022-10-16T12:17:25;6.50;;;2.30;;
9388;SDS011;4734;52.778;6.798;2022-10-16T12:20:18;7.25;;;2.60;;
9388;SDS011;4734;52.778;6.798;2022-10-16T12:23:19;10.43;;;2.20;;
9388;SDS011;4734;52.778;6.798;2022-10-16T12:26:09;7.28;;;2.00;;
9388;SDS011;4734;52.778;6.798;2022-10-16T12:28:55;6.13;;;1.80;;
9388;SDS011;4734;52.778;6.798;2022-10-16T12:31:54;7.13;;;2.22;;
9388;SDS011;4734;52.778;6.798;2022-10-16T12:34:41;8.80;;;2.20;;
9388;SDS011;4734;52.778;6.798;2022-10-16T12:37:29;8.00;;;2.20;;
9388;SDS011;4734;52.778;6.798;2022-10-16T12:40:25;5.88;;;2.10;;
9388;SDS011;4734;52.778;6.798;2022-10-16T12:43:25;6.22;;;1.95;;
9388;SDS011;4734;52.778;6.798;2022-10-16T12:46:21;8.13;;;2.08;;
9388;SDS011;4734;52.778;6.798;2022-10-16T12:49:20;5.70;;;2.20;;
9388;SDS011;4734;52.778;6.798;2022-10-16T12:52:22;6.25;;;1.88;;
9388;SDS011;4734;52.778;6.798;2022-10-16T12:55:12;10.65;;;2.10;;
9388;SDS011;4734;52.778;6.798;2022-10-16T12:58:12;6.68;;;1.80;;
9388;SDS011;4734;52.778;6.798;2022-10-16T13:01:09;7.03;;;2.20;;
9388;SDS011;4734;52.778;6.798;2022-10-16T13:04:21;5.47;;;1.98;;
9388;SDS011;4734;52.778;6.798;2022-10-16T13:07:34;8.02;;;2.35;;
9388;SDS011;4734;52.778;6.798;2022-10-16T13:10:31;6.78;;;1.77;;
9388;SDS011;4734;52.778;6.798;2022-10-16T13:13:32;5.90;;;1.83;;
9388;SDS011;4734;52.778;6.798;2022-10-16T13:16:45;6.38;;;2.17;;
9388;SDS011;4734;52.778;6.798;2022-10-16T13:19:38;5.00;;;2.08;;
9388;SDS011;4734;52.778;6.798;2022-10-16T13:22:30;8.27;;;2.15;;
9388;SDS011;4734;52.778;6.798;2022-10-16T13:25:26;6.20;;;2.17;;
9388;SDS011;4734;52.778;6.798;2022-10-16T13:28:21;9.23;;;1.85;;
9388;SDS011;4734;52.778;6.798;2022-10-16T13:31:15;6.57;;;1.88;;
9388;SDS011;4734;52.778;6.798;2022-10-16T13:34:21;6.50;;;1.98;;
9388;SDS011;4734;52.778;6.798;2022-10-16T13:37:15;6.72;;;1.85;;
9388;SDS011;4734;52.778;6.798;2022-10-16T13:40:09;5.03;;;1.73;;
9388;SDS011;4734;52.778;6.798;2022-10-16T13:43:04;5.60;;;1.80;;
9388;SDS011;4734;52.778;6.798;2022-10-16T13:45:57;5.43;;;2.05;;
9388;SDS011;4734;52.778;6.798;2022-10-16T13:48:55;4.45;;;1.67;;
9388;SDS011;4734;52.778;6.798;2022-10-16T13:51:42;8.38;;;2.05;;
9388;SDS011;4734;52.778;6.798;2022-10-16T13:54:39;6.18;;;1.60;;
9388;SDS011;4734;52.778;6.798;2022-10-16T13:57:25;3.72;;;1.60;;
9388;SDS011;4734;52.778;6.798;2022-10-16T14:00:17;8.10;;;2.00;;
9388;SDS011;4734;52.778;6.798;2022-10-16T14:03:05;7.65;;;2.25;;
9388;SDS011;4734;52.778;6.798;2022-10-16T14:05:59;8.60;;;1.63;;
9388;SDS011;4734;52.778;6.798;2022-10-16T14:08:48;4.65;;;1.52;;
9388;SDS011;4734;52.778;6.798;2022-10-16T14:11:44;8.15;;;2.00;;
9388;SDS011;4734;52.778;6.798;2022-10-16T14:14:34;5.85;;;1.85;;
9388;SDS011;4734;52.778;6.798;2022-10-16T14:17:24;5.82;;;1.55;;
9388;SDS011;4734;52.778;6.798;2022-10-16T14:20:12;4.82;;;2.20;;
9388;SDS011;4734;52.778;6.798;2022-10-16T14:23:02;6.85;;;1.60;;
9388;SDS011;4734;52.778;6.798;2022-10-16T14:25:48;6.55;;;2.08;;
9388;SDS011;4734;52.778;6.798;2022-10-16T14:28:34;6.13;;;1.67;;
9388;SDS011;4734;52.778;6.798;2022-10-16T14:31:24;5.95;;;1.70;;
9388;SDS011;4734;52.778;6.798;2022-10-16T14:34:23;3.60;;;1.60;;
9388;SDS011;4734;52.778;6.798;2022-10-16T14:37:20;7.15;;;1.83;;
9388;SDS011;4734;52.778;6.798;2022-10-16T14:40:13;3.83;;;1.77;;
9388;SDS011;4734;52.778;6.798;2022-10-16T14:42:59;2.83;;;1.55;;
9388;SDS011;4734;52.778;6.798;2022-10-16T14:45:49;5.82;;;1.50;;
9388;SDS011;4734;52.778;6.798;2022-10-16T14:48:36;7.30;;;2.22;;
9388;SDS011;4734;52.778;6.798;2022-10-16T14:51:26;5.20;;;1.63;;
9388;SDS011;4734;52.778;6.798;2022-10-16T14:54:12;4.32;;;1.30;;
9388;SDS011;4734;52.778;6.798;2022-10-16T14:56:59;4.65;;;1.48;;
9388;SDS011;4734;52.778;6.798;2022-10-16T14:59:46;4.82;;;1.60;;
9388;SDS011;4734;52.778;6.798;2022-10-16T15:02:32;8.02;;;1.85;;
9388;SDS011;4734;52.778;6.798;2022-10-16T15:05:20;7.00;;;1.92;;
9388;SDS011;4734;52.778;6.798;2022-10-16T15:08:08;5.30;;;1.67;;
9388;SDS011;4734;52.778;6.798;2022-10-16T15:10:53;3.72;;;1.90;;
9388;SDS011;4734;52.778;6.798;2022-10-16T15:13:41;6.32;;;1.60;;
9388;SDS011;4734;52.778;6.798;2022-10-16T15:16:26;7.53;;;2.08;;
9388;SDS011;4734;52.778;6.798;2022-10-16T15:19:12;7.57;;;2.00;;
9388;SDS011;4734;52.778;6.798;2022-10-16T15:21:57;6.13;;;1.73;;
9388;SDS011;4734;52.778;6.798;2022-10-16T15:24:43;4.35;;;1.63;;
9388;SDS011;4734;52.778;6.798;2022-10-16T15:27:28;6.93;;;2.03;;
9388;SDS011;4734;52.778;6.798;2022-10-16T15:30:15;9.05;;;1.83;;
9388;SDS011;4734;52.778;6.798;2022-10-16T15:33:01;6.63;;;1.88;;
9388;SDS011;4734;52.778;6.798;2022-10-16T15:35:47;6.88;;;1.85;;
9388;SDS011;4734;52.778;6.798;2022-10-16T15:38:33;5.88;;;1.70;;
9388;SDS011;4734;52.778;6.798;2022-10-16T15:41:19;6.70;;;1.90;;
9388;SDS011;4734;52.778;6.798;2022-10-16T15:44:05;5.95;;;1.80;;
9388;SDS011;4734;52.778;6.798;2022-10-16T15:46:52;5.45;;;1.75;;
9388;SDS011;4734;52.778;6.798;2022-10-16T15:49:40;4.05;;;1.80;;
9388;SDS011;4734;52.778;6.798;2022-10-16T15:52:25;6.38;;;1.80;;
9388;SDS011;4734;52.778;6.798;2022-10-16T15:55:12;6.10;;;1.90;;
9388;SDS011;4734;52.778;6.798;2022-10-16T15:57:59;4.90;;;1.55;;
9388;SDS011;4734;52.778;6.798;2022-10-16T16:00:44;6.43;;;1.67;;
9388;SDS011;4734;52.778;6.798;2022-10-16T16:03:31;2.92;;;1.70;;
9388;SDS011;4734;52.778;6.798;2022-10-16T16:06:17;6.35;;;2.92;;
9388;SDS011;4734;52.778;6.798;2022-10-16T16:09:03;8.32;;;2.40;;
9388;SDS011;4734;52.778;6.798;2022-10-16T16:11:49;8.63;;;2.40;;
9388;SDS011;4734;52.778;6.798;2022-10-16T16:14:36;3.78;;;2.30;;
9388;SDS011;4734;52.778;6.798;2022-10-16T16:17:22;5.97;;;2.13;;
9388;SDS011;4734;52.778;6.798;2022-10-16T16:20:10;5.32;;;2.40;;
9388;SDS011;4734;52.778;6.798;2022-10-16T16:22:55;5.43;;;2.45;;
9388;SDS011;4734;52.778;6.798;2022-10-16T16:25:41;4.35;;;2.75;;
9388;SDS011;4734;52.778;6.798;2022-10-16T16:28:27;7.55;;;2.70;;
9388;SDS011;4734;52.778;6.798;2022-10-16T16:31:12;9.88;;;2.10;;
9388;SDS011;4734;52.778;6.798;2022-10-16T16:33:58;5.15;;;2.35;;
9388;SDS011;4734;52.778;6.798;2022-10-16T16:36:45;7.00;;;2.38;;
9388;SDS011;4734;52.778;6.798;2022-10-16T16:39:30;6.10;;;3.30;;
9388;SDS011;4734;52.778;6.798;2022-10-16T16:42:16;8.75;;;4.47;;
9388;SDS011;4734;52.778;6.798;2022-10-16T16:45:02;10.90;;;4.53;;
9388;SDS011;4734;52.778;6.798;2022-10-16T16:47:47;7.90;;;4.32;;
9388;SDS011;4734;52.778;6.798;2022-10-16T16:50:34;7.78;;;5.93;;
9388;SDS011;4734;52.778;6.798;2022-10-16T16:53:22;5.07;;;3.25;;
9388;SDS011;4734;52.778;6.798;2022-10-16T16:56:07;3.50;;;2.50;;
9388;SDS011;4734;52.778;6.798;2022-10-16T16:58:53;5.18;;;4.25;;
9388;SDS011;4734;52.778;6.798;2022-10-16T17:01:42;4.68;;;3.22;;
9388;SDS011;4734;52.778;6.798;2022-10-16T17:04:27;6.75;;;2.97;;
9388;SDS011;4734;52.778;6.798;2022-10-16T17:07:13;4.35;;;2.03;;
9388;SDS011;4734;52.778;6.798;2022-10-16T17:10:00;2.40;;;2.03;;
9388;SDS011;4734;52.778;6.798;2022-10-16T17:12:46;5.85;;;2.30;;
9388;SDS011;4734;52.778;6.798;2022-10-16T17:15:31;8.77;;;2.70;;
9388;SDS011;4734;52.778;6.798;2022-10-16T17:18:17;5.88;;;2.20;;
9388;SDS011;4734;52.778;6.798;2022-10-16T17:21:04;3.10;;;1.48;;
9388;SDS011;4734;52.778;6.798;2022-10-16T17:23:51;4.20;;;1.70;;
9388;SDS011;4734;52.778;6.798;2022-10-16T17:26:38;1.65;;;1.50;;
9388;SDS011;4734;52.778;6.798;2022-10-16T17:29:26;4.07;;;1.50;;
9388;SDS011;4734;52.778;6.798;2022-10-16T17:32:12;4.80;;;2.00;;